sensor_id;sensor_type;location;lat;lon;timestamp;pressure;altitude;pressure_sealevel;temperature;humidity
42111;BME280;27766;52.174;5.456;2024-03-17T00:00:32;102278.31;;;5.20;100.00
42111;BME280;27766;52.174;5.456;2024-03-17T00:02:58;102273.28;;;5.21;100.00
42111;BME280;27766;52.174;5.456;2024-03-17T00:05:25;102277.34;;;5.31;100.00
42111;BME280;27766;52.174;5.456;2024-03-17T00:07:51;102263.69;;;5.32;100.00
42111;BME280;27766;52.174;5.456;2024-03-17T00:10:17;102267.22;;;5.34;100.00
42111;BME280;27766;52.174;5.456;2024-03-17T00:12:43;102260.22;;;5.32;100.00
42111;BME280;27766;52.174;5.456;2024-03-17T00:15:09;102261.81;;;5.30;100.00
42111;BME280;27766;52.174;5.456;2024-03-17T00:17:36;102262.72;;;5.30;100.00
42111;BME280;27766;52.174;5.456;2024-03-17T00:20:03;102269.34;;;5.27;100.00
42111;BME280;27766;52.174;5.456;2024-03-17T00:22:37;102263.28;;;5.26;100.00
42111;BME280;27766;52.174;5.456;2024-03-17T00:25:06;102258.16;;;5.26;100.00
42111;BME280;27766;52.174;5.456;2024-03-17T00:27:32;102247.59;;;5.21;100.00
42111;BME280;27766;52.174;5.456;2024-03-17T00:30:00;102247.91;;;5.26;100.00
42111;BME280;27766;52.174;5.456;2024-03-17T00:32:28;102253.81;;;5.25;100.00
42111;BME280;27766;52.174;5.456;2024-03-17T00:34:55;102259.16;;;5.28;100.00
42111;BME280;27766;52.174;5.456;2024-03-17T00:37:21;102253.94;;;5.27;100.00
42111;BME280;27766;52.174;5.456;2024-03-17T00:39:49;102251.44;;;5.28;100.00
42111;BME280;27766;52.174;5.456;2024-03-17T00:42:16;102249.88;;;5.30;100.00
42111;BME280;27766;52.174;5.456;2024-03-17T00:44:42;102237.91;;;5.31;100.00
42111;BME280;27766;52.174;5.456;2024-03-17T00:47:09;102246.53;;;5.31;100.00
42111;BME280;27766;52.174;5.456;2024-03-17T00:49:35;102240.47;;;5.31;100.00
42111;BME280;27766;52.174;5.456;2024-03-17T00:52:01;102246.09;;;5.25;100.00
42111;BME280;27766;52.174;5.456;2024-03-17T00:54:27;102235.06;;;5.26;100.00
42111;BME280;27766;52.174;5.456;2024-03-17T00:56:54;102237.03;;;5.30;100.00
42111;BME280;27766;52.174;5.456;2024-03-17T00:59:20;102238.81;;;5.31;100.00
42111;BME280;27766;52.174;5.456;2024-03-17T01:01:46;102235.34;;;5.31;100.00
42111;BME280;27766;52.174;5.456;2024-03-17T01:04:12;102238.81;;;5.31;100.00
42111;BME280;27766;52.174;5.456;2024-03-17T01:06:39;102227.34;;;5.26;100.00
42111;BME280;27766;52.174;5.456;2024-03-17T01:09:07;102224.78;;;5.26;100.00
42111;BME280;27766;52.174;5.456;2024-03-17T01:11:34;102231.19;;;5.33;100.00
42111;BME280;27766;52.174;5.456;2024-03-17T01:14:01;102227.94;;;5.35;100.00
42111;BME280;27766;52.174;5.456;2024-03-17T01:16:27;102233.25;;;5.38;100.00
42111;BME280;27766;52.174;5.456;2024-03-17T01:18:53;102219.53;;;5.38;100.00
42111;BME280;27766;52.174;5.456;2024-03-17T01:21:20;102230.00;;;5.41;100.00
42111;BME280;27766;52.174;5.456;2024-03-17T01:23:48;102219.88;;;5.44;100.00
42111;BME280;27766;52.174;5.456;2024-03-17T01:26:14;102218.03;;;5.42;100.00
42111;BME280;27766;52.174;5.456;2024-03-17T01:28:40;102214.38;;;5.38;100.00
42111;BME280;27766;52.174;5.456;2024-03-17T01:31:07;102216.16;;;5.39;100.00
42111;BME280;27766;52.174;5.456;2024-03-17T01:33:33;102215.28;;;5.38;100.00
42111;BME280;27766;52.174;5.456;2024-03-17T01:36:00;102208.38;;;5.37;100.00
42111;BME280;27766;52.174;5.456;2024-03-17T01:38:26;102204.31;;;5.41;100.00
42111;BME280;27766;52.174;5.456;2024-03-17T01:40:52;102200.97;;;5.42;100.00
42111;BME280;27766;52.174;5.456;2024-03-17T01:43:18;102198.38;;;5.42;100.00
42111;BME280;27766;52.174;5.456;2024-03-17T01:45:45;102195.13;;;5.45;100.00
42111;BME280;27766;52.174;5.456;2024-03-17T01:48:15;102192.63;;;5.46;100.00
42111;BME280;27766;52.174;5.456;2024-03-17T01:50:43;102187.22;;;5.42;100.00
42111;BME280;27766;52.174;5.456;2024-03-17T01:53:11;102182.06;;;5.42;100.00
42111;BME280;27766;52.174;5.456;2024-03-17T01:55:42;102179.72;;;5.45;100.00
42111;BME280;27766;52.174;5.456;2024-03-17T01:58:09;102186.63;;;5.46;100.00
42111;BME280;27766;52.174;5.456;2024-03-17T02:00:37;102175.97;;;5.39;100.00
42111;BME280;27766;52.174;5.456;2024-03-17T02:03:07;102177.66;;;5.39;100.00
42111;BME280;27766;52.174;5.456;2024-03-17T02:05:36;102177.84;;;5.42;100.00
42111;BME280;27766;52.174;5.456;2024-03-17T02:08:05;102173.41;;;5.39;100.00
42111;BME280;27766;52.174;5.456;2024-03-17T02:10:33;102172.59;;;5.41;100.00
42111;BME280;27766;52.174;5.456;2024-03-17T02:13:00;102181.47;;;5.46;100.00
42111;BME280;27766;52.174;5.456;2024-03-17T02:15:27;102178.13;;;5.47;100.00
42111;BME280;27766;52.174;5.456;2024-03-17T02:17:53;102175.00;;;5.52;100.00
42111;BME280;27766;52.174;5.456;2024-03-17T02:20:20;102176.72;;;5.52;100.00
42111;BME280;27766;52.174;5.456;2024-03-17T02:22:48;102174.22;;;5.53;100.00
42111;BME280;27766;52.174;5.456;2024-03-17T02:25:14;102171.84;;;5.57;100.00
42111;BME280;27766;52.174;5.456;2024-03-17T02:27:40;102178.22;;;5.63;100.00
42111;BME280;27766;52.174;5.456;2024-03-17T02:30:07;102178.16;;;5.62;100.00
42111;BME280;27766;52.174;5.456;2024-03-17T02:32:35;102169.72;;;5.64;100.00
42111;BME280;27766;52.174;5.456;2024-03-17T02:35:02;102162.03;;;5.64;100.00
42111;BME280;27766;52.174;5.456;2024-03-17T02:37:28;102162.03;;;5.64;100.00
42111;BME280;27766;52.174;5.456;2024-03-17T02:39:54;102159.66;;;5.67;100.00
42111;BME280;27766;52.174;5.456;2024-03-17T02:42:20;102158.84;;;5.68;100.00
42111;BME280;27766;52.174;5.456;2024-03-17T02:44:46;102152.94;;;5.69;100.00
42111;BME280;27766;52.174;5.456;2024-03-17T02:47:12;102152.94;;;5.69;100.00
42111;BME280;27766;52.174;5.456;2024-03-17T02:49:40;102146.38;;;5.75;100.00
42111;BME280;27766;52.174;5.456;2024-03-17T02:52:10;102143.28;;;5.80;100.00
42111;BME280;27766;52.174;5.456;2024-03-17T02:54:38;102148.41;;;5.80;100.00
42111;BME280;27766;52.174;5.456;2024-03-17T02:57:05;102153.81;;;5.85;100.00
42111;BME280;27766;52.174;5.456;2024-03-17T02:59:33;102151.94;;;5.82;100.00
42111;BME280;27766;52.174;5.456;2024-03-17T03:01:59;102152.84;;;5.83;100.00
42111;BME280;27766;52.174;5.456;2024-03-17T03:04:26;102147.91;;;5.86;100.00
42111;BME280;27766;52.174;5.456;2024-03-17T03:06:53;102144.34;;;5.84;100.00
42111;BME280;27766;52.174;5.456;2024-03-17T03:09:19;102143.81;;;5.90;100.00
42111;BME280;27766;52.174;5.456;2024-03-17T03:12:00;102138.56;;;5.88;100.00
42111;BME280;27766;52.174;5.456;2024-03-17T03:14:29;102133.44;;;5.88;100.00
42111;BME280;27766;52.174;5.456;2024-03-17T03:16:55;102142.31;;;5.93;100.00
42111;BME280;27766;52.174;5.456;2024-03-17T03:19:21;102106.06;;;5.74;100.00
42111;BME280;27766;52.174;5.456;2024-03-17T03:21:47;102139.03;;;5.96;100.00
42111;BME280;27766;52.174;5.456;2024-03-17T03:24:14;102139.31;;;6.00;100.00
42111;BME280;27766;52.174;5.456;2024-03-17T03:26:40;102134.06;;;5.99;100.00
42111;BME280;27766;52.174;5.456;2024-03-17T03:29:06;102137.72;;;6.02;100.00
42111;BME280;27766;52.174;5.456;2024-03-17T03:31:33;102140.47;;;6.06;100.00
42111;BME280;27766;52.174;5.456;2024-03-17T03:33:59;102138.88;;;6.08;100.00
42111;BME280;27766;52.174;5.456;2024-03-17T03:36:29;102147.53;;;6.10;100.00
42111;BME280;27766;52.174;5.456;2024-03-17T03:38:55;102143.47;;;6.13;100.00
42111;BME280;27766;52.174;5.456;2024-03-17T03:41:23;102139.31;;;6.15;100.00
42111;BME280;27766;52.174;5.456;2024-03-17T03:43:49;102139.38;;;6.17;100.00
42111;BME280;27766;52.174;5.456;2024-03-17T03:46:16;102134.25;;;6.17;100.00
42111;BME280;27766;52.174;5.456;2024-03-17T03:48:42;102127.63;;;6.21;100.00
42111;BME280;27766;52.174;5.456;2024-03-17T03:51:09;102130.19;;;6.21;100.00
42111;BME280;27766;52.174;5.456;2024-03-17T03:53:36;102128.56;;;6.23;100.00
42111;BME280;27766;52.174;5.456;2024-03-17T03:56:04;102118.72;;;6.15;100.00
42111;BME280;27766;52.174;5.456;2024-03-17T03:58:34;102114.66;;;6.19;100.00
42111;BME280;27766;52.174;5.456;2024-03-17T04:01:05;102107.19;;;6.24;100.00
42111;BME280;27766;52.174;5.456;2024-03-17T04:03:35;102102.84;;;6.23;100.00
42111;BME280;27766;52.174;5.456;2024-03-17T04:06:10;102104.38;;;6.19;100.00
42111;BME280;27766;52.174;5.456;2024-03-17T04:08:37;102093.53;;;6.25;100.00
42111;BME280;27766;52.174;5.456;2024-03-17T04:11:06;102088.66;;;6.29;100.00
42111;BME280;27766;52.174;5.456;2024-03-17T04:13:33;102082.72;;;6.30;100.00
42111;BME280;27766;52.174;5.456;2024-03-17T04:16:00;102081.94;;;6.31;100.00
42111;BME280;27766;52.174;5.456;2024-03-17T04:18:27;102075.97;;;6.32;100.00
42111;BME280;27766;52.174;5.456;2024-03-17T04:20:57;102075.97;;;6.32;100.00
42111;BME280;27766;52.174;5.456;2024-03-17T04:23:23;102075.16;;;6.33;100.00
42111;BME280;27766;52.174;5.456;2024-03-17T04:25:51;102080.31;;;6.33;100.00
42111;BME280;27766;52.174;5.456;2024-03-17T04:28:18;102070.00;;;6.33;100.00
42111;BME280;27766;52.174;5.456;2024-03-17T04:30:45;102077.47;;;6.29;100.00
42111;BME280;27766;52.174;5.456;2024-03-17T04:33:12;102074.81;;;6.27;100.00
42111;BME280;27766;52.174;5.456;2024-03-17T04:35:39;102070.00;;;6.33;100.00
42111;BME280;27766;52.174;5.456;2024-03-17T04:38:05;102061.50;;;6.34;100.00
42111;BME280;27766;52.174;5.456;2024-03-17T04:40:33;102058.13;;;6.36;100.00
42111;BME280;27766;52.174;5.456;2024-03-17T04:42:59;102059.00;;;6.36;100.00
42111;BME280;27766;52.174;5.456;2024-03-17T04:45:26;102059.00;;;6.36;100.00
42111;BME280;27766;52.174;5.456;2024-03-17T04:47:52;102061.56;;;6.36;100.00
42111;BME280;27766;52.174;5.456;2024-03-17T04:50:18;102054.59;;;6.33;100.00
42111;BME280;27766;52.174;5.456;2024-03-17T04:52:44;102062.94;;;6.29;100.00
42111;BME280;27766;52.174;5.456;2024-03-17T04:55:10;102056.22;;;6.31;100.00
42111;BME280;27766;52.174;5.456;2024-03-17T04:57:37;102054.78;;;6.37;100.00
42111;BME280;27766;52.174;5.456;2024-03-17T05:00:03;102059.91;;;6.37;100.00
42111;BME280;27766;52.174;5.456;2024-03-17T05:02:33;102069.47;;;6.39;100.00
42111;BME280;27766;52.174;5.456;2024-03-17T05:04:59;102068.75;;;6.42;100.00
42111;BME280;27766;52.174;5.456;2024-03-17T05:07:25;102067.97;;;6.43;100.00
42111;BME280;27766;52.174;5.456;2024-03-17T05:09:54;102063.88;;;6.46;100.00
42111;BME280;27766;52.174;5.456;2024-03-17T05:12:23;102060.41;;;6.46;100.00
42111;BME280;27766;52.174;5.456;2024-03-17T05:14:49;102057.19;;;6.50;100.00
42111;BME280;27766;52.174;5.456;2024-03-17T05:17:16;102054.63;;;6.50;100.00
42111;BME280;27766;52.174;5.456;2024-03-17T05:19:42;102052.06;;;6.50;100.00
42111;BME280;27766;52.174;5.456;2024-03-17T05:22:08;102050.59;;;6.55;100.00
42111;BME280;27766;52.174;5.456;2024-03-17T05:24:34;102051.56;;;6.57;100.00
42111;BME280;27766;52.174;5.456;2024-03-17T05:27:00;102058.31;;;6.55;100.00
42111;BME280;27766;52.174;5.456;2024-03-17T05:29:26;102054.56;;;6.48;100.00
42111;BME280;27766;52.174;5.456;2024-03-17T05:31:53;102062.53;;;6.53;100.00
42111;BME280;27766;52.174;5.456;2024-03-17T05:34:19;102054.88;;;6.55;100.00
42111;BME280;27766;52.174;5.456;2024-03-17T05:36:45;102065.09;;;6.53;100.00
42111;BME280;27766;52.174;5.456;2024-03-17T05:39:13;102058.19;;;6.52;100.00
42111;BME280;27766;52.174;5.456;2024-03-17T05:41:39;102055.59;;;6.52;100.00
42111;BME280;27766;52.174;5.456;2024-03-17T05:44:07;102047.88;;;6.52;100.00
42111;BME280;27766;52.174;5.456;2024-03-17T05:46:33;102051.44;;;6.54;100.00
42111;BME280;27766;52.174;5.456;2024-03-17T05:48:59;102046.28;;;6.54;100.00
42111;BME280;27766;52.174;5.456;2024-03-17T05:51:25;102043.00;;;6.57;100.00
42111;BME280;27766;52.174;5.456;2024-03-17T05:53:53;102043.88;;;6.57;100.00
42111;BME280;27766;52.174;5.456;2024-03-17T05:56:22;102051.56;;;6.57;100.00
42111;BME280;27766;52.174;5.456;2024-03-17T05:58:49;102049.91;;;6.58;100.00
42111;BME280;27766;52.174;5.456;2024-03-17T06:01:15;102055.13;;;6.59;100.00
42111;BME280;27766;52.174;5.456;2024-03-17T06:03:41;102049.19;;;6.60;100.00
42111;BME280;27766;52.174;5.456;2024-03-17T06:06:09;102045.38;;;6.54;100.00
42111;BME280;27766;52.174;5.456;2024-03-17T06:08:38;102057.63;;;6.58;100.00
42111;BME280;27766;52.174;5.456;2024-03-17T06:11:05;102059.47;;;6.60;100.00
42111;BME280;27766;52.174;5.456;2024-03-17T06:13:31;102047.59;;;6.62;100.00
42111;BME280;27766;52.174;5.456;2024-03-17T06:15:57;102050.56;;;6.70;100.00
42111;BME280;27766;52.174;5.456;2024-03-17T06:18:27;102058.28;;;6.70;100.00
42111;BME280;27766;52.174;5.456;2024-03-17T06:20:54;102054.19;;;6.74;100.00
42111;BME280;27766;52.174;5.456;2024-03-17T06:23:24;102057.97;;;6.80;100.00
42111;BME280;27766;52.174;5.456;2024-03-17T06:25:51;102047.91;;;6.85;100.00
42111;BME280;27766;52.174;5.456;2024-03-17T06:28:18;102050.25;;;6.80;100.00
42111;BME280;27766;52.174;5.456;2024-03-17T06:30:45;102048.13;;;6.90;100.00
42111;BME280;27766;52.174;5.456;2024-03-17T06:33:16;102047.44;;;6.92;100.00
42111;BME280;27766;52.174;5.456;2024-03-17T06:35:46;102036.16;;;6.90;100.00
42111;BME280;27766;52.174;5.456;2024-03-17T06:38:15;102046.16;;;7.01;100.00
42111;BME280;27766;52.174;5.456;2024-03-17T06:40:48;102045.56;;;7.06;100.00
42111;BME280;27766;52.174;5.456;2024-03-17T06:43:15;102039.69;;;7.09;100.00
42111;BME280;27766;52.174;5.456;2024-03-17T06:45:42;102040.75;;;7.12;100.00
42111;BME280;27766;52.174;5.456;2024-03-17T06:48:08;102044.13;;;7.11;100.00
42111;BME280;27766;52.174;5.456;2024-03-17T06:50:34;102036.47;;;7.13;100.00
42111;BME280;27766;52.174;5.456;2024-03-17T06:53:00;102037.59;;;7.18;100.00
42111;BME280;27766;52.174;5.456;2024-03-17T06:55:26;102036.94;;;7.22;100.00
42111;BME280;27766;52.174;5.456;2024-03-17T06:57:54;102049.97;;;7.25;100.00
42111;BME280;27766;52.174;5.456;2024-03-17T07:00:20;102048.44;;;7.29;100.00
42111;BME280;27766;52.174;5.456;2024-03-17T07:02:51;102058.16;;;7.35;100.00
42111;BME280;27766;52.174;5.456;2024-03-17T07:05:17;102055.81;;;7.39;100.00
42111;BME280;27766;52.174;5.456;2024-03-17T07:07:45;102047.53;;;7.45;100.00
42111;BME280;27766;52.174;5.456;2024-03-17T07:10:14;102044.38;;;7.51;100.00
42111;BME280;27766;52.174;5.456;2024-03-17T07:12:42;102044.50;;;7.54;100.00
42111;BME280;27766;52.174;5.456;2024-03-17T07:15:08;102045.41;;;7.54;100.00
42111;BME280;27766;52.174;5.456;2024-03-17T07:17:34;102047.50;;;7.62;100.00
42111;BME280;27766;52.174;5.456;2024-03-17T07:20:01;102051.97;;;7.66;100.00
42111;BME280;27766;52.174;5.456;2024-03-17T07:22:27;102052.38;;;7.73;100.00
42111;BME280;27766;52.174;5.456;2024-03-17T07:24:54;102051.63;;;7.76;100.00
42111;BME280;27766;52.174;5.456;2024-03-17T07:27:24;102052.72;;;7.81;100.00
42111;BME280;27766;52.174;5.456;2024-03-17T07:29:50;102053.75;;;7.85;100.00
42111;BME280;27766;52.174;5.456;2024-03-17T07:32:16;102061.03;;;7.93;100.00
42111;BME280;27766;52.174;5.456;2024-03-17T07:34:42;102062.22;;;8.00;100.00
42111;BME280;27766;52.174;5.456;2024-03-17T07:37:08;102062.50;;;8.06;100.00
42111;BME280;27766;52.174;5.456;2024-03-17T07:39:35;102063.84;;;8.16;100.00
42111;BME280;27766;52.174;5.456;2024-03-17T07:42:02;102054.13;;;8.29;100.00
42111;BME280;27766;52.174;5.456;2024-03-17T07:44:28;102052.78;;;8.37;100.00
42111;BME280;27766;52.174;5.456;2024-03-17T07:47:03;102053.22;;;8.46;100.00
42111;BME280;27766;52.174;5.456;2024-03-17T07:49:30;102048.22;;;8.49;100.00
42111;BME280;27766;52.174;5.456;2024-03-17T07:51:57;102052.28;;;8.64;100.00
42111;BME280;27766;52.174;5.456;2024-03-17T07:54:24;102045.66;;;8.69;100.00
42111;BME280;27766;52.174;5.456;2024-03-17T07:56:52;102044.59;;;8.83;100.00
42111;BME280;27766;52.174;5.456;2024-03-17T07:59:18;102036.41;;;8.74;100.00
42111;BME280;27766;52.174;5.456;2024-03-17T08:01:44;102037.38;;;8.96;100.00
42111;BME280;27766;52.174;5.456;2024-03-17T08:04:12;102034.28;;;9.05;100.00
42111;BME280;27766;52.174;5.456;2024-03-17T08:06:41;102034.94;;;9.20;100.00
42111;BME280;27766;52.174;5.456;2024-03-17T08:09:11;102031.81;;;9.27;100.00
42111;BME280;27766;52.174;5.456;2024-03-17T08:11:38;102039.03;;;9.34;100.00
42111;BME280;27766;52.174;5.456;2024-03-17T08:14:04;102038.47;;;9.42;100.00
42111;BME280;27766;52.174;5.456;2024-03-17T08:16:31;102046.13;;;9.40;100.00
42111;BME280;27766;52.174;5.456;2024-03-17T08:18:57;102047.72;;;9.37;100.00
42111;BME280;27766;52.174;5.456;2024-03-17T08:21:24;102048.84;;;9.43;100.00
42111;BME280;27766;52.174;5.456;2024-03-17T08:23:51;102042.94;;;9.46;100.00
42111;BME280;27766;52.174;5.456;2024-03-17T08:26:18;102043.69;;;9.43;100.00
42111;BME280;27766;52.174;5.456;2024-03-17T08:28:44;102034.31;;;9.45;100.00
42111;BME280;27766;52.174;5.456;2024-03-17T08:31:12;102039.34;;;9.42;100.00
42111;BME280;27766;52.174;5.456;2024-03-17T08:33:38;102037.75;;;9.46;100.00
42111;BME280;27766;52.174;5.456;2024-03-17T08:36:06;102038.78;;;9.49;100.00
42111;BME280;27766;52.174;5.456;2024-03-17T08:38:36;102032.91;;;9.32;100.00
42111;BME280;27766;52.174;5.456;2024-03-17T08:41:08;102025.09;;;9.31;100.00
42111;BME280;27766;52.174;5.456;2024-03-17T08:43:35;102022.63;;;9.34;100.00
42111;BME280;27766;52.174;5.456;2024-03-17T08:46:06;102017.50;;;9.35;100.00
42111;BME280;27766;52.174;5.456;2024-03-17T08:48:35;102016.03;;;9.41;100.00
42111;BME280;27766;52.174;5.456;2024-03-17T08:51:03;102016.03;;;9.41;100.00
42111;BME280;27766;52.174;5.456;2024-03-17T08:53:30;102017.84;;;9.43;100.00
42111;BME280;27766;52.174;5.456;2024-03-17T08:55:57;102014.69;;;9.50;100.00
42111;BME280;27766;52.174;5.456;2024-03-17T08:58:23;102018.47;;;9.59;100.00
42111;BME280;27766;52.174;5.456;2024-03-17T09:00:49;102018.78;;;9.66;100.00
42111;BME280;27766;52.174;5.456;2024-03-17T09:03:17;102024.72;;;9.64;100.00
42111;BME280;27766;52.174;5.456;2024-03-17T09:05:45;102024.03;;;9.68;100.00
42111;BME280;27766;52.174;5.456;2024-03-17T09:11:59;102009.00;;;9.80;100.00
42111;BME280;27766;52.174;5.456;2024-03-17T09:14:26;102011.00;;;9.88;100.00
42111;BME280;27766;52.174;5.456;2024-03-17T09:16:52;102021.72;;;9.97;100.00
42111;BME280;27766;52.174;5.456;2024-03-17T09:19:18;102020.31;;;10.05;100.00
42111;BME280;27766;52.174;5.456;2024-03-17T09:21:44;102015.25;;;10.08;100.00
42111;BME280;27766;52.174;5.456;2024-03-17T09:24:11;102006.66;;;10.09;100.00
42111;BME280;27766;52.174;5.456;2024-03-17T09:26:37;102008.63;;;10.15;100.00
42111;BME280;27766;52.174;5.456;2024-03-17T09:29:06;102008.16;;;10.25;100.00
42111;BME280;27766;52.174;5.456;2024-03-17T09:31:32;102008.38;;;10.32;100.00
42111;BME280;27766;52.174;5.456;2024-03-17T09:34:02;102013.72;;;10.36;100.00
42111;BME280;27766;52.174;5.456;2024-03-17T09:36:28;102016.59;;;10.42;100.00
42111;BME280;27766;52.174;5.456;2024-03-17T09:38:54;102011.53;;;10.45;100.00
42111;BME280;27766;52.174;5.456;2024-03-17T09:41:23;102015.03;;;10.48;100.00
42111;BME280;27766;52.174;5.456;2024-03-17T09:43:53;102014.44;;;10.55;100.00
42111;BME280;27766;52.174;5.456;2024-03-17T09:46:19;102004.84;;;10.52;100.00
42111;BME280;27766;52.174;5.456;2024-03-17T09:48:46;101998.91;;;10.55;100.00
42111;BME280;27766;52.174;5.456;2024-03-17T09:51:19;102003.56;;;10.64;100.00
42111;BME280;27766;52.174;5.456;2024-03-17T09:53:46;102004.59;;;10.69;100.00
42111;BME280;27766;52.174;5.456;2024-03-17T09:56:14;102011.91;;;10.81;100.00
42111;BME280;27766;52.174;5.456;2024-03-17T09:58:42;102010.31;;;10.84;100.00
42111;BME280;27766;52.174;5.456;2024-03-17T10:01:08;102015.72;;;10.90;100.00
42111;BME280;27766;52.174;5.456;2024-03-17T10:06:27;102011.31;;;10.88;100.00
42111;BME280;27766;52.174;5.456;2024-03-17T10:08:55;102008.22;;;10.98;100.00
42111;BME280;27766;52.174;5.456;2024-03-17T10:11:23;101996.19;;;11.00;100.00
42111;BME280;27766;52.174;5.456;2024-03-17T10:14:01;101997.25;;;11.05;100.00
42111;BME280;27766;52.174;5.456;2024-03-17T10:16:28;101994.09;;;11.14;100.00
42111;BME280;27766;52.174;5.456;2024-03-17T10:19:08;101996.50;;;11.09;100.00
42111;BME280;27766;52.174;5.456;2024-03-17T10:21:37;101991.78;;;11.22;100.00
42111;BME280;27766;52.174;5.456;2024-03-17T10:26:44;101994.91;;;11.39;100.00
42111;BME280;27766;52.174;5.456;2024-03-17T10:29:32;101992.06;;;11.31;100.00
42111;BME280;27766;52.174;5.456;2024-03-17T10:32:18;101985.53;;;11.43;100.00
42111;BME280;27766;52.174;5.456;2024-03-17T10:34:45;101977.00;;;11.47;100.00
42111;BME280;27766;52.174;5.456;2024-03-17T10:37:19;101982.69;;;11.62;100.00
42111;BME280;27766;52.174;5.456;2024-03-17T10:39:50;101978.47;;;11.66;100.00
42111;BME280;27766;52.174;5.456;2024-03-17T10:42:24;101973.78;;;11.81;100.00
42111;BME280;27766;52.174;5.456;2024-03-17T10:44:51;101971.59;;;11.95;100.00
42111;BME280;27766;52.174;5.456;2024-03-17T10:47:22;101965.81;;;12.02;100.00
42111;BME280;27766;52.174;5.456;2024-03-17T10:49:50;101968.81;;;12.16;100.00
42111;BME280;27766;52.174;5.456;2024-03-17T10:52:18;101963.94;;;12.27;100.00
42111;BME280;27766;52.174;5.456;2024-03-17T10:54:52;101962.59;;;12.40;100.00
42111;BME280;27766;52.174;5.456;2024-03-17T10:57:27;101956.34;;;12.65;100.00
42111;BME280;27766;52.174;5.456;2024-03-17T10:59:59;101947.22;;;12.81;100.00
42111;BME280;27766;52.174;5.456;2024-03-17T11:02:27;101941.47;;;12.93;100.00
42111;BME280;27766;52.174;5.456;2024-03-17T11:05:08;101947.06;;;13.09;100.00
42111;BME280;27766;52.174;5.456;2024-03-17T11:07:40;101945.41;;;13.12;100.00
42111;BME280;27766;52.174;5.456;2024-03-17T11:10:23;101957.72;;;13.20;100.00
42111;BME280;27766;52.174;5.456;2024-03-17T11:12:50;101953.47;;;13.22;100.00
42111;BME280;27766;52.174;5.456;2024-03-17T11:20:43;101940.97;;;13.42;100.00
42111;BME280;27766;52.174;5.456;2024-03-17T11:23:29;101938.63;;;13.53;100.00
42111;BME280;27766;52.174;5.456;2024-03-17T11:25:57;101938.84;;;13.62;100.00
42111;BME280;27766;52.174;5.456;2024-03-17T11:31:35;101943.97;;;13.99;100.00
42111;BME280;27766;52.174;5.456;2024-03-17T11:34:04;101943.13;;;14.00;100.00
42111;BME280;27766;52.174;5.456;2024-03-17T11:36:36;101934.94;;;13.81;100.00
42111;BME280;27766;52.174;5.456;2024-03-17T11:39:05;101936.63;;;13.79;100.00
42111;BME280;27766;52.174;5.456;2024-03-17T11:41:46;101918.19;;;13.70;100.00
42111;BME280;27766;52.174;5.456;2024-03-17T11:49:29;101927.16;;;13.44;100.00
42111;BME280;27766;52.174;5.456;2024-03-17T11:52:03;101927.94;;;13.40;100.00
42111;BME280;27766;52.174;5.456;2024-03-17T11:54:32;101927.94;;;13.40;100.00
42111;BME280;27766;52.174;5.456;2024-03-17T11:57:04;101925.09;;;13.31;100.00
42111;BME280;27766;52.174;5.456;2024-03-17T11:59:32;101922.50;;;13.31;100.00
42111;BME280;27766;52.174;5.456;2024-03-17T12:01:59;101925.13;;;13.33;100.00
42111;BME280;27766;52.174;5.456;2024-03-17T12:04:26;101926.59;;;13.21;100.00
42111;BME280;27766;52.174;5.456;2024-03-17T12:06:54;101930.53;;;13.05;100.00
42111;BME280;27766;52.174;5.456;2024-03-17T12:09:25;101931.09;;;12.93;100.00
42111;BME280;27766;52.174;5.456;2024-03-17T12:12:05;101930.09;;;12.88;100.00
42111;BME280;27766;52.174;5.456;2024-03-17T12:14:33;101928.25;;;12.84;100.00
42111;BME280;27766;52.174;5.456;2024-03-17T12:17:01;101928.91;;;12.77;100.00
42111;BME280;27766;52.174;5.456;2024-03-17T12:19:27;101925.63;;;12.82;100.00
42111;BME280;27766;52.174;5.456;2024-03-17T12:21:57;101919.50;;;12.80;100.00
42111;BME280;27766;52.174;5.456;2024-03-17T12:24:25;101918.34;;;12.69;100.00
42111;BME280;27766;52.174;5.456;2024-03-17T12:26:53;101906.16;;;12.66;100.00
42111;BME280;27766;52.174;5.456;2024-03-17T12:29:35;101910.56;;;12.69;100.00
42111;BME280;27766;52.174;5.456;2024-03-17T12:32:04;101911.53;;;12.74;100.00
42111;BME280;27766;52.174;5.456;2024-03-17T12:34:33;101901.25;;;12.77;100.00
42111;BME280;27766;52.174;5.456;2024-03-17T12:37:00;101902.91;;;12.75;100.00
42111;BME280;27766;52.174;5.456;2024-03-17T12:39:28;101886.34;;;12.70;100.00
42111;BME280;27766;52.174;5.456;2024-03-17T12:42:02;101891.03;;;12.85;100.00
42111;BME280;27766;52.174;5.456;2024-03-17T12:47:14;101883.91;;;12.76;100.00
42111;BME280;27766;52.174;5.456;2024-03-17T12:49:53;101885.53;;;12.73;100.00
42111;BME280;27766;52.174;5.456;2024-03-17T12:52:30;101875.28;;;12.79;100.00
42111;BME280;27766;52.174;5.456;2024-03-17T12:57:52;101868.34;;;12.78;100.00
42111;BME280;27766;52.174;5.456;2024-03-17T13:00:37;101860.78;;;12.87;100.00
42111;BME280;27766;52.174;5.456;2024-03-17T13:03:07;101865.03;;;12.83;100.00
42111;BME280;27766;52.174;5.456;2024-03-17T13:05:34;101865.19;;;12.91;100.00
42111;BME280;27766;52.174;5.456;2024-03-17T13:08:01;101867.06;;;12.97;100.00
42111;BME280;27766;52.174;5.456;2024-03-17T13:10:28;101863.38;;;12.87;100.00
42111;BME280;27766;52.174;5.456;2024-03-17T13:13:05;101861.63;;;12.86;100.00
42111;BME280;27766;52.174;5.456;2024-03-17T13:15:33;101855.72;;;12.93;100.00
42111;BME280;27766;52.174;5.456;2024-03-17T13:18:03;101849.22;;;12.76;100.00
42111;BME280;27766;52.174;5.456;2024-03-17T13:20:34;101844.13;;;12.79;100.00